createdAt,value
2017-11-20T00:00:48.110Z,0
2017-11-20T00:01:49.983Z,0
2017-11-20T00:02:51.852Z,0
2017-11-20T00:03:53.661Z,0
2017-11-20T00:04:55.474Z,0
2017-11-20T00:05:57.346Z,0
2017-11-20T00:06:59.221Z,0
2017-11-20T00:08:01.100Z,0
2017-11-20T00:09:15.242Z,0
2017-11-20T00:10:17.116Z,0
2017-11-20T00:11:18.984Z,0
2017-11-20T00:12:20.859Z,0
2017-11-20T00:13:22.672Z,0
2017-11-20T00:14:24.481Z,0
2017-11-20T00:15:26.352Z,0
2017-11-20T00:16:28.233Z,0
2017-11-20T00:17:30.106Z,0
2017-11-20T00:18:44.255Z,0
2017-11-20T00:19:46.125Z,0
2017-11-20T00:20:47.999Z,0
2017-11-20T00:21:49.874Z,0
2017-11-20T00:22:51.687Z,0
2017-11-20T00:23:53.499Z,0
2017-11-20T00:24:55.369Z,0
2017-11-20T00:25:57.245Z,0
2017-11-20T00:26:59.124Z,0
2017-11-20T00:28:13.266Z,0
2017-11-20T00:29:15.137Z,0
2017-11-20T00:30:17.008Z,0
2017-11-20T00:31:18.880Z,0
2017-11-20T00:32:20.697Z,0
2017-11-20T00:33:22.503Z,0
2017-11-20T00:34:24.372Z,0
2017-11-20T00:35:26.248Z,0
2017-11-20T00:36:28.128Z,0
2017-11-20T00:37:42.273Z,0
2017-11-20T00:38:44.153Z,0
2017-11-20T00:39:46.025Z,0
2017-11-20T00:40:47.896Z,0
2017-11-20T00:41:49.707Z,0
2017-11-20T00:42:51.519Z,0
2017-11-20T00:43:53.391Z,0
2017-11-20T00:44:55.266Z,0
2017-11-20T00:45:57.138Z,0
2017-11-20T00:47:11.288Z,0
2017-11-20T00:48:13.160Z,0
2017-11-20T00:49:15.033Z,0
2017-11-20T00:50:16.909Z,0
2017-11-20T00:51:18.718Z,0
2017-11-20T00:52:20.531Z,0
2017-11-20T00:53:22.408Z,0
2017-11-20T00:54:24.280Z,0
2017-11-20T00:55:26.149Z,0
2017-11-20T00:56:40.283Z,0
2017-11-20T00:57:42.156Z,0
2017-11-20T00:58:44.029Z,0
2017-11-20T00:59:45.913Z,0
2017-11-20T01:00:47.716Z,0
2017-11-20T01:01:49.530Z,0
2017-11-20T01:02:51.399Z,0
2017-11-20T01:03:53.273Z,0
2017-11-20T01:04:55.147Z,0
2017-11-20T01:06:09.294Z,0
2017-11-20T01:07:11.165Z,0
2017-11-20T01:08:13.042Z,0
2017-11-20T01:09:14.909Z,0
2017-11-20T01:10:16.723Z,0
2017-11-20T01:11:18.535Z,0
2017-11-20T01:12:20.406Z,0
2017-11-20T01:13:22.282Z,0
2017-11-20T01:14:24.171Z,0
2017-11-20T01:15:38.299Z,0
2017-11-20T01:16:40.170Z,0
2017-11-20T01:17:42.043Z,0
2017-11-20T01:18:43.914Z,0
2017-11-20T01:19:45.727Z,0
2017-11-20T01:20:47.538Z,0
2017-11-20T01:21:49.409Z,0
2017-11-20T01:22:51.287Z,0
2017-11-20T01:23:53.160Z,0
2017-11-20T01:25:07.307Z,0
2017-11-20T01:26:09.177Z,0
2017-11-20T01:27:11.055Z,0
2017-11-20T01:28:12.926Z,0
2017-11-20T01:29:14.737Z,0
2017-11-20T01:30:16.551Z,0
2017-11-20T01:31:18.419Z,0
2017-11-20T01:32:20.297Z,0
2017-11-20T01:33:22.168Z,0
2017-11-20T01:34:36.314Z,0
2017-11-20T01:35:38.189Z,0
2017-11-20T01:36:40.060Z,0
2017-11-20T01:37:41.944Z,0
2017-11-20T01:38:43.746Z,0
2017-11-20T01:39:45.561Z,0
2017-11-20T01:40:47.431Z,0
2017-11-20T01:41:49.308Z,0
2017-11-20T01:42:51.181Z,0
2017-11-20T01:44:05.328Z,0
2017-11-20T01:45:07.200Z,0
2017-11-20T01:46:09.071Z,0
2017-11-20T01:47:10.943Z,0
2017-11-20T01:48:12.758Z,0
2017-11-20T01:49:14.564Z,0
2017-11-20T01:50:16.435Z,0
2017-11-20T01:51:18.309Z,0
2017-11-20T01:52:20.184Z,0
2017-11-20T01:53:34.331Z,0
2017-11-20T01:54:36.203Z,0
2017-11-20T01:55:38.075Z,0
2017-11-20T01:56:39.945Z,0
2017-11-20T01:57:41.757Z,0
2017-11-20T01:58:43.571Z,0
2017-11-20T01:59:45.441Z,0
2017-11-20T02:00:47.312Z,0
2017-11-20T02:01:49.182Z,0
2017-11-20T02:03:03.331Z,0
2017-11-20T02:04:05.198Z,0
2017-11-20T02:05:07.069Z,0
2017-11-20T02:06:08.941Z,0
2017-11-20T02:07:10.753Z,0
2017-11-20T02:08:12.564Z,0
2017-11-20T02:09:14.438Z,0
2017-11-20T02:10:16.317Z,0
2017-11-20T02:11:18.184Z,0
2017-11-20T02:12:32.330Z,0
2017-11-20T02:13:34.198Z,0
2017-11-20T02:14:36.068Z,0
2017-11-20T02:15:37.943Z,0
2017-11-20T02:16:39.755Z,0
2017-11-20T02:17:41.567Z,0
2017-11-20T02:18:43.433Z,0
2017-11-20T02:19:45.305Z,0
2017-11-20T02:20:47.181Z,0
2017-11-20T02:22:01.331Z,0
2017-11-20T02:23:03.197Z,0
2017-11-20T02:24:05.070Z,0
2017-11-20T02:25:06.935Z,0
2017-11-20T02:26:08.757Z,0
2017-11-20T02:27:10.573Z,0
2017-11-20T02:28:12.446Z,0
2017-11-20T02:29:14.319Z,0
2017-11-20T02:30:16.194Z,0
2017-11-20T02:31:30.387Z,0
2017-11-20T02:32:32.257Z,0
2017-11-20T02:33:34.130Z,0
2017-11-20T02:34:36.017Z,0
2017-11-20T02:35:37.812Z,0
2017-11-20T02:36:39.626Z,0
2017-11-20T02:37:41.498Z,0
2017-11-20T02:38:43.369Z,0
2017-11-20T02:39:45.241Z,0
2017-11-20T02:40:59.387Z,0
2017-11-20T02:42:01.268Z,0
2017-11-20T02:43:03.131Z,0
2017-11-20T02:44:05.014Z,0
2017-11-20T02:45:06.824Z,0
2017-11-20T02:46:08.634Z,0
2017-11-20T02:47:10.506Z,0
2017-11-20T02:48:12.395Z,0
2017-11-20T02:49:14.252Z,0
2017-11-20T02:50:28.399Z,0
2017-11-20T02:51:30.273Z,0
2017-11-20T02:52:32.143Z,0
2017-11-20T02:53:34.013Z,0
2017-11-20T02:54:35.829Z,0
2017-11-20T02:55:37.635Z,0
2017-11-20T02:56:39.516Z,0
2017-11-20T02:57:41.385Z,0
2017-11-20T02:58:43.255Z,0
2017-11-20T02:59:57.400Z,0
2017-11-20T03:00:59.280Z,0
2017-11-20T03:02:01.145Z,0
2017-11-20T03:03:03.016Z,0
2017-11-20T03:04:04.828Z,0
2017-11-20T03:05:06.641Z,0
2017-11-20T03:06:08.514Z,0
2017-11-20T03:07:10.392Z,0
2017-11-20T03:08:12.259Z,0
2017-11-20T03:09:26.411Z,0
2017-11-20T03:10:28.280Z,0
2017-11-20T03:11:30.155Z,0
2017-11-20T03:12:32.026Z,0
2017-11-20T03:13:33.838Z,0
2017-11-20T03:14:35.651Z,0
2017-11-20T03:15:37.524Z,0
2017-11-20T03:16:39.398Z,0
2017-11-20T03:17:41.268Z,0
2017-11-20T03:18:55.413Z,0
2017-11-20T03:19:57.287Z,0
2017-11-20T03:20:59.165Z,0
2017-11-20T03:22:01.036Z,0
2017-11-20T03:23:02.852Z,0
2017-11-20T03:24:04.657Z,0
2017-11-20T03:25:06.529Z,0
2017-11-20T03:26:08.404Z,0
2017-11-20T03:27:10.275Z,0
2017-11-20T03:28:24.422Z,0
2017-11-20T03:29:26.301Z,0
2017-11-20T03:30:28.181Z,0
2017-11-20T03:31:30.045Z,0
2017-11-20T03:32:31.857Z,0
2017-11-20T03:33:33.671Z,0
2017-11-20T03:34:35.547Z,0
2017-11-20T03:35:37.420Z,0
2017-11-20T03:36:39.291Z,0
2017-11-20T03:37:53.487Z,0
2017-11-20T03:38:55.365Z,0
2017-11-20T03:39:57.232Z,0
2017-11-20T03:40:59.109Z,0
2017-11-20T03:42:00.914Z,0
2017-11-20T03:43:02.730Z,0
2017-11-20T03:44:04.602Z,0
2017-11-20T03:45:06.477Z,0
2017-11-20T03:46:08.352Z,0
2017-11-20T03:47:22.554Z,0
2017-11-20T03:48:24.426Z,0
2017-11-20T03:49:26.304Z,0
2017-11-20T03:50:28.185Z,0
2017-11-20T03:51:29.993Z,0
2017-11-20T03:52:31.806Z,0
2017-11-20T03:53:33.680Z,0
2017-11-20T03:54:35.554Z,0
2017-11-20T03:55:37.435Z,0
2017-11-20T03:56:51.575Z,0
2017-11-20T03:57:53.447Z,0
2017-11-20T03:58:55.320Z,0
2017-11-20T03:59:57.191Z,0
2017-11-20T04:00:59.002Z,0
2017-11-20T04:02:00.816Z,0
2017-11-20T04:03:02.688Z,0
2017-11-20T04:04:04.562Z,0
2017-11-20T04:05:06.434Z,0
2017-11-20T04:06:20.628Z,0
2017-11-20T04:07:22.499Z,0
2017-11-20T04:08:24.372Z,0
2017-11-20T04:09:26.244Z,0
2017-11-20T04:10:28.056Z,0
2017-11-20T04:11:29.866Z,0
2017-11-20T04:12:31.740Z,0
2017-11-20T04:13:33.621Z,0
2017-11-20T04:14:35.489Z,0
2017-11-20T04:15:49.681Z,0
2017-11-20T04:16:51.556Z,0
2017-11-20T04:17:53.430Z,0
2017-11-20T04:18:55.302Z,0
2017-11-20T04:19:57.121Z,0
2017-11-20T04:20:58.927Z,0
2017-11-20T04:22:00.799Z,0
2017-11-20T04:23:02.677Z,0
2017-11-20T04:24:04.547Z,0
2017-11-20T04:25:18.744Z,0
2017-11-20T04:26:20.619Z,0
2017-11-20T04:27:22.492Z,0
2017-11-20T04:28:24.366Z,0
2017-11-20T04:29:26.175Z,0
2017-11-20T04:30:27.988Z,0
2017-11-20T04:31:29.861Z,0
2017-11-20T04:32:31.733Z,0
2017-11-20T04:33:33.605Z,0
2017-11-20T04:34:47.754Z,0
2017-11-20T04:35:49.630Z,0
2017-11-20T04:36:51.506Z,0
2017-11-20T04:37:53.377Z,0
2017-11-20T04:38:55.188Z,0
2017-11-20T04:39:57.001Z,0
2017-11-20T04:40:58.873Z,0
2017-11-20T04:42:00.746Z,0
2017-11-20T04:43:02.618Z,0
2017-11-20T04:44:16.811Z,0
2017-11-20T04:45:18.686Z,0
2017-11-20T04:46:20.558Z,0
2017-11-20T04:47:22.429Z,0
2017-11-20T04:48:24.239Z,0
2017-11-20T04:49:26.052Z,0
2017-11-20T04:50:27.926Z,0
2017-11-20T04:51:29.799Z,0
2017-11-20T04:52:31.671Z,0
2017-11-20T04:53:45.866Z,0
2017-11-20T04:54:47.738Z,0
2017-11-20T04:55:49.612Z,0
2017-11-20T04:56:51.484Z,0
2017-11-20T04:57:53.298Z,0
2017-11-20T04:58:55.107Z,0
2017-11-20T04:59:56.981Z,0
2017-11-20T05:00:58.857Z,0
2017-11-20T05:02:00.730Z,0
2017-11-20T05:03:14.880Z,0
2017-11-20T05:04:16.754Z,0
2017-11-20T05:05:18.636Z,0
2017-11-20T05:06:20.508Z,0
2017-11-20T05:07:22.320Z,0
2017-11-20T05:08:24.142Z,0
2017-11-20T05:09:26.019Z,0
2017-11-20T05:10:27.891Z,0
2017-11-20T05:11:29.763Z,0
2017-11-20T05:12:43.915Z,0
2017-11-20T05:13:45.798Z,0
2017-11-20T05:14:47.666Z,0
2017-11-20T05:15:49.540Z,0
2017-11-20T05:16:51.353Z,0
2017-11-20T05:17:53.176Z,0
2017-11-20T05:18:55.041Z,0
2017-11-20T05:19:56.915Z,0
2017-11-20T05:20:58.788Z,0
2017-11-20T05:22:12.938Z,0
2017-11-20T05:23:14.813Z,0
2017-11-20T05:24:16.688Z,0
2017-11-20T05:25:18.562Z,0
2017-11-20T05:26:20.373Z,0
2017-11-20T05:27:22.186Z,0
2017-11-20T05:28:24.062Z,0
2017-11-20T05:29:25.938Z,0
2017-11-20T05:30:27.810Z,0
2017-11-20T05:31:42.009Z,0
2017-11-20T05:32:43.884Z,0
2017-11-20T05:33:45.762Z,0
2017-11-20T05:34:47.633Z,0
2017-11-20T05:35:49.451Z,0
2017-11-20T05:36:51.264Z,0
2017-11-20T05:37:53.145Z,0
2017-11-20T05:38:55.021Z,0
2017-11-20T05:39:56.898Z,0
2017-11-20T05:41:11.045Z,0
2017-11-20T05:42:12.942Z,0
2017-11-20T05:43:14.799Z,0
2017-11-20T05:44:16.684Z,0
2017-11-20T05:45:18.497Z,0
2017-11-20T05:46:20.312Z,0
2017-11-20T05:47:22.187Z,0
2017-11-20T05:48:24.066Z,0
2017-11-20T05:49:25.940Z,0
2017-11-20T05:50:40.087Z,0
2017-11-20T05:51:41.962Z,0
2017-11-20T05:52:43.847Z,0
2017-11-20T05:53:45.711Z,0
2017-11-20T05:54:47.524Z,0
2017-11-20T05:55:49.336Z,0
2017-11-20T05:56:51.212Z,4
2017-11-20T05:57:53.088Z,4
2017-11-20T05:58:54.960Z,0
2017-11-20T06:00:09.110Z,4
2017-11-20T06:01:10.987Z,4
2017-11-20T06:02:12.862Z,8
2017-11-20T06:03:14.735Z,8
2017-11-20T06:04:16.553Z,8
2017-11-20T06:05:18.366Z,12
2017-11-20T06:06:20.250Z,8
2017-11-20T06:07:22.112Z,12
2017-11-20T06:08:23.987Z,12
2017-11-20T06:09:38.137Z,16
2017-11-20T06:10:40.015Z,16
2017-11-20T06:11:41.906Z,16
2017-11-20T06:12:43.819Z,12
2017-11-20T06:13:45.649Z,16
2017-11-20T06:14:47.454Z,24
2017-11-20T06:15:49.332Z,32
2017-11-20T06:16:51.215Z,36
2017-11-20T06:17:53.088Z,44
2017-11-20T06:19:07.236Z,64
2017-11-20T06:20:09.112Z,72
2017-11-20T06:21:10.994Z,76
2017-11-20T06:22:12.867Z,68
2017-11-20T06:23:14.682Z,92
2017-11-20T06:24:16.505Z,96
2017-11-20T06:25:18.381Z,112
2017-11-20T06:26:20.255Z,104
2017-11-20T06:27:22.137Z,108
2017-11-20T06:28:36.282Z,128
2017-11-20T06:29:38.159Z,120
2017-11-20T06:30:40.039Z,120
2017-11-20T06:31:41.915Z,96
2017-11-20T06:32:43.731Z,80
2017-11-20T06:33:45.548Z,80
2017-11-20T06:34:47.424Z,80
2017-11-20T06:35:49.304Z,84
2017-11-20T06:36:51.177Z,84
2017-11-20T06:38:05.328Z,128
2017-11-20T06:39:07.205Z,112
2017-11-20T06:40:09.092Z,112
2017-11-20T06:41:10.969Z,128
2017-11-20T06:42:12.782Z,144
2017-11-20T06:43:14.601Z,192
2017-11-20T06:44:16.476Z,188
2017-11-20T06:45:18.358Z,188
2017-11-20T06:46:20.230Z,228
2017-11-20T06:47:34.379Z,216
2017-11-20T06:48:36.257Z,228
2017-11-20T06:49:38.136Z,240
2017-11-20T06:50:40.014Z,264
2017-11-20T06:51:41.832Z,228
2017-11-20T06:52:43.645Z,184
2017-11-20T06:53:45.532Z,188
2017-11-20T06:54:47.402Z,224
2017-11-20T06:55:49.280Z,244
2017-11-20T06:57:03.431Z,368
2017-11-20T06:58:05.331Z,516
2017-11-20T06:59:07.200Z,584
2017-11-20T07:00:09.069Z,612
2017-11-20T07:01:10.883Z,592
2017-11-20T07:02:12.700Z,540
2017-11-20T07:03:14.578Z,604
2017-11-20T07:04:16.462Z,616
2017-11-20T07:05:18.334Z,608
2017-11-20T07:06:32.484Z,752
2017-11-20T07:07:34.372Z,984
2017-11-20T07:08:36.242Z,1140
2017-11-20T07:09:38.121Z,1228
2017-11-20T07:10:39.939Z,1312
2017-11-20T07:11:41.784Z,1584
2017-11-20T07:12:43.636Z,1520
2017-11-20T07:13:45.515Z,1476
2017-11-20T07:14:47.406Z,1260
2017-11-20T07:16:01.557Z,1204
2017-11-20T07:17:03.439Z,1468
2017-11-20T07:18:05.319Z,1804
2017-11-20T07:19:07.195Z,2192
2017-11-20T07:20:09.011Z,2092
2017-11-20T07:21:10.830Z,1644
2017-11-20T07:22:12.708Z,1708
2017-11-20T07:23:14.590Z,1672
2017-11-20T07:24:16.468Z,1668
2017-11-20T07:25:30.669Z,1600
2017-11-20T07:26:32.549Z,1312
2017-11-20T07:27:34.427Z,1432
2017-11-20T07:28:36.307Z,1476
2017-11-20T07:29:38.121Z,1400
2017-11-20T07:30:39.940Z,1356
2017-11-20T07:31:41.821Z,1432
2017-11-20T07:32:43.705Z,1400
2017-11-20T07:33:45.582Z,1388
2017-11-20T07:34:59.783Z,1344
2017-11-20T07:36:01.665Z,1420
2017-11-20T07:37:03.544Z,1248
2017-11-20T07:38:05.421Z,1296
2017-11-20T07:39:07.236Z,1784
2017-11-20T07:40:09.060Z,1668
2017-11-20T07:41:10.938Z,1404
2017-11-20T07:42:12.818Z,1168
2017-11-20T07:43:14.692Z,996
2017-11-20T07:44:28.898Z,936
2017-11-20T07:45:30.779Z,1080
2017-11-20T07:46:32.654Z,1304
2017-11-20T07:47:34.531Z,1428
2017-11-20T07:48:36.352Z,1368
2017-11-20T07:49:38.165Z,1560
2017-11-20T07:50:40.043Z,1580
2017-11-20T07:51:41.925Z,1624
2017-11-20T07:52:43.799Z,1764
2017-11-20T07:53:57.999Z,2064
2017-11-20T07:54:59.889Z,2076
2017-11-20T07:56:01.766Z,1756
2017-11-20T07:57:03.648Z,2380
2017-11-20T07:58:05.466Z,2464
2017-11-20T07:59:07.282Z,2372
2017-11-20T08:00:09.180Z,2468
2017-11-20T08:01:11.040Z,3376
2017-11-20T08:02:12.916Z,3332
2017-11-20T08:03:27.072Z,4408
2017-11-20T08:04:28.950Z,3972
2017-11-20T08:05:30.827Z,3736
2017-11-20T08:06:32.703Z,3980
2017-11-20T08:07:34.534Z,3364
2017-11-20T08:08:36.353Z,3300
2017-11-20T08:09:38.231Z,3544
2017-11-20T08:10:40.111Z,2872
2017-11-20T08:11:41.990Z,2576
2017-11-20T08:12:56.143Z,2612
2017-11-20T08:13:58.021Z,2580
2017-11-20T08:14:59.899Z,2516
2017-11-20T08:16:01.775Z,2564
2017-11-20T08:17:03.595Z,1980
2017-11-20T08:18:05.414Z,2164
2017-11-20T08:19:07.290Z,2168
2017-11-20T08:20:09.167Z,2764
2017-11-20T08:21:11.048Z,2228
2017-11-20T08:22:25.182Z,2652
2017-11-20T08:23:27.005Z,2596
2017-11-20T08:24:28.818Z,3768
2017-11-20T08:25:30.634Z,3756
2017-11-20T08:26:32.473Z,2544
2017-11-20T08:27:34.352Z,1760
2017-11-20T08:28:36.237Z,1632
2017-11-20T08:29:38.065Z,2400
2017-11-20T08:30:39.882Z,3624
2017-11-20T08:31:54.089Z,2872
2017-11-20T08:32:55.971Z,3476
2017-11-20T08:33:57.853Z,4112
2017-11-20T08:34:59.731Z,4204
2017-11-20T08:36:01.548Z,4640
2017-11-20T08:37:03.368Z,3056
2017-11-20T08:38:05.191Z,3416
2017-11-20T08:39:07.006Z,3164
2017-11-20T08:40:08.824Z,3480
2017-11-20T08:41:22.977Z,4680
2017-11-20T08:42:24.858Z,3784
2017-11-20T08:43:26.740Z,3260
2017-11-20T08:44:28.619Z,2668
2017-11-20T08:45:30.434Z,3112
2017-11-20T08:46:32.253Z,3548
2017-11-20T08:47:34.139Z,3436
2017-11-20T08:48:36.016Z,4080
2017-11-20T08:49:37.896Z,3268
2017-11-20T08:50:52.099Z,3132
2017-11-20T08:51:53.982Z,3828
2017-11-20T08:52:55.863Z,3992
2017-11-20T08:53:57.742Z,4580
2017-11-20T08:54:59.561Z,5292
2017-11-20T08:56:01.384Z,5048
2017-11-20T08:57:03.262Z,5164
2017-11-20T08:58:05.143Z,4552
2017-11-20T08:59:07.022Z,5192
2017-11-20T09:00:21.176Z,5384
2017-11-20T09:01:23.059Z,5744
2017-11-20T09:02:24.941Z,6432
2017-11-20T09:03:26.823Z,5828
2017-11-20T09:04:28.642Z,4616
2017-11-20T09:05:30.463Z,4636
2017-11-20T09:06:32.342Z,5288
2017-11-20T09:07:34.224Z,5964
2017-11-20T09:08:36.136Z,6484
2017-11-20T09:09:50.263Z,6288
2017-11-20T09:10:52.141Z,6800
2017-11-20T09:11:54.022Z,6400
2017-11-20T09:12:55.901Z,5816
2017-11-20T09:13:57.726Z,5720
2017-11-20T09:14:59.536Z,5524
2017-11-20T09:16:01.419Z,5720
2017-11-20T09:17:03.302Z,5432
2017-11-20T09:18:05.182Z,5172
2017-11-20T09:19:19.341Z,5612
2017-11-20T09:20:21.219Z,5648
2017-11-20T09:21:23.101Z,5692
2017-11-20T09:22:24.987Z,4700
2017-11-20T09:23:26.800Z,4860
2017-11-20T09:24:28.619Z,4572
2017-11-20T09:25:30.500Z,4292
2017-11-20T09:26:32.383Z,4564
2017-11-20T09:27:34.262Z,6152
2017-11-20T09:28:48.467Z,5252
2017-11-20T09:29:50.350Z,5532
2017-11-20T09:30:52.232Z,5824
2017-11-20T09:31:54.122Z,5260
2017-11-20T09:32:55.961Z,4708
2017-11-20T09:33:57.764Z,4592
2017-11-20T09:34:59.648Z,4592
2017-11-20T09:36:01.528Z,4820
2017-11-20T09:37:03.440Z,5024
2017-11-20T09:38:17.552Z,5460
2017-11-20T09:39:19.373Z,6536
2017-11-20T09:40:21.190Z,6224
2017-11-20T09:41:23.011Z,6752
2017-11-20T09:42:24.828Z,5900
2017-11-20T09:43:26.709Z,4732
2017-11-20T09:44:28.592Z,4172
2017-11-20T09:45:30.461Z,5840
2017-11-20T09:46:32.270Z,7544
2017-11-20T09:47:46.425Z,6932
2017-11-20T09:48:48.306Z,5024
2017-11-20T09:49:50.187Z,4384
2017-11-20T09:50:52.074Z,3636
2017-11-20T09:51:53.883Z,3016
2017-11-20T09:52:55.703Z,3424
2017-11-20T09:53:57.587Z,3348
2017-11-20T09:54:59.469Z,3056
2017-11-20T09:56:01.352Z,3528
2017-11-20T09:57:15.503Z,4716
2017-11-20T09:58:17.387Z,5296
2017-11-20T09:59:19.266Z,5624
2017-11-20T10:00:21.148Z,5320
2017-11-20T10:01:22.962Z,4692
2017-11-20T10:02:24.780Z,4644
2017-11-20T10:03:26.662Z,4400
2017-11-20T10:04:28.549Z,4312
2017-11-20T10:05:30.426Z,4328
2017-11-20T10:06:44.581Z,4696
2017-11-20T10:07:46.464Z,5996
2017-11-20T10:08:48.344Z,5936
2017-11-20T10:09:50.221Z,5592
2017-11-20T10:10:52.045Z,5752
2017-11-20T10:11:53.862Z,6608
2017-11-20T10:12:55.745Z,6804
2017-11-20T10:13:57.628Z,5676
2017-11-20T10:14:59.507Z,5644
2017-11-20T10:16:13.678Z,7184
2017-11-20T10:17:15.582Z,6840
2017-11-20T10:18:17.464Z,6408
2017-11-20T10:19:19.342Z,5480
2017-11-20T10:20:21.163Z,6008
2017-11-20T10:21:22.986Z,6040
2017-11-20T10:22:24.866Z,5248
2017-11-20T10:23:26.751Z,5148
2017-11-20T10:24:28.633Z,5456
2017-11-20T10:25:42.787Z,6220
2017-11-20T10:26:44.684Z,5952
2017-11-20T10:27:46.549Z,4684
2017-11-20T10:28:48.426Z,4096
2017-11-20T10:29:50.244Z,3648
2017-11-20T10:30:52.065Z,3876
2017-11-20T10:31:53.946Z,4064
2017-11-20T10:32:55.829Z,4360
2017-11-20T10:33:57.711Z,4928
2017-11-20T10:35:11.913Z,5444
2017-11-20T10:36:13.799Z,5412
2017-11-20T10:37:15.680Z,5316
2017-11-20T10:38:17.565Z,4976
2017-11-20T10:39:19.386Z,4808
2017-11-20T10:40:21.205Z,4924
2017-11-20T10:41:23.089Z,4960
2017-11-20T10:42:24.971Z,4404
2017-11-20T10:43:26.857Z,3724
2017-11-20T10:44:41.054Z,3160
2017-11-20T10:45:42.941Z,2960
2017-11-20T10:46:44.818Z,2580
2017-11-20T10:47:46.700Z,2128
2017-11-20T10:48:48.518Z,1728
2017-11-20T10:49:50.336Z,1864
2017-11-20T10:50:52.215Z,2440
2017-11-20T10:51:54.097Z,2696
2017-11-20T10:52:55.980Z,2668
2017-11-20T10:54:10.134Z,3376
2017-11-20T10:55:12.015Z,3212
2017-11-20T10:56:13.897Z,2920
2017-11-20T10:57:15.778Z,3132
2017-11-20T10:58:17.595Z,3792
2017-11-20T10:59:19.415Z,4284
2017-11-20T11:00:21.302Z,4464
2017-11-20T11:01:23.178Z,4164
2017-11-20T11:02:25.062Z,3548
2017-11-20T11:03:39.218Z,4204
2017-11-20T11:04:41.099Z,5008
2017-11-20T11:05:42.980Z,5176
2017-11-20T11:06:44.862Z,5304
2017-11-20T11:07:46.675Z,5380
2017-11-20T11:08:48.517Z,5440
2017-11-20T11:09:50.340Z,5312
2017-11-20T11:10:52.222Z,5400
2017-11-20T11:11:54.109Z,5728
2017-11-20T11:13:08.257Z,5156
2017-11-20T11:14:10.139Z,5056
2017-11-20T11:15:12.021Z,5372
2017-11-20T11:16:13.902Z,5460
2017-11-20T11:17:15.719Z,5396
2017-11-20T11:18:17.538Z,5308
2017-11-20T11:19:19.420Z,5132
2017-11-20T11:20:21.306Z,4748
2017-11-20T11:21:23.184Z,4248
2017-11-20T11:22:37.340Z,3828
2017-11-20T11:23:39.227Z,4024
2017-11-20T11:24:41.102Z,4076
2017-11-20T11:25:42.981Z,4044
2017-11-20T11:26:44.797Z,3992
2017-11-20T11:27:46.616Z,4176
2017-11-20T11:28:48.497Z,4104
2017-11-20T11:29:50.379Z,3820
2017-11-20T11:30:52.261Z,3820
2017-11-20T11:32:06.416Z,4032
2017-11-20T11:33:08.302Z,3932
2017-11-20T11:34:10.178Z,3832
2017-11-20T11:35:12.076Z,3380
2017-11-20T11:36:16.471Z,3260
2017-11-20T11:37:15.716Z,3100
2017-11-20T11:38:17.599Z,3664
2017-11-20T11:39:19.484Z,4184
2017-11-20T11:40:21.364Z,4420
2017-11-20T11:41:35.520Z,3784
2017-11-20T11:42:37.402Z,3612
2017-11-20T11:43:39.307Z,3448
2017-11-20T11:44:41.168Z,3504
2017-11-20T11:45:42.990Z,3280
2017-11-20T11:46:44.812Z,2880
2017-11-20T11:47:46.693Z,2664
2017-11-20T11:48:48.579Z,3232
2017-11-20T11:49:50.451Z,3304
2017-11-20T11:51:04.654Z,3216
2017-11-20T11:52:06.538Z,3124
2017-11-20T11:53:08.418Z,2800
2017-11-20T11:54:10.301Z,2844
2017-11-20T11:55:12.115Z,2456
2017-11-20T11:56:13.939Z,2596
2017-11-20T11:57:15.815Z,2500
2017-11-20T11:58:17.697Z,2936
2017-11-20T11:59:19.579Z,3028
2017-11-20T12:00:33.733Z,2672
2017-11-20T12:01:35.614Z,2464
2017-11-20T12:02:37.500Z,2448
2017-11-20T12:03:39.372Z,2684
2017-11-20T12:04:41.189Z,2684
2017-11-20T12:05:43.009Z,2452
2017-11-20T12:06:44.889Z,2640
2017-11-20T12:07:46.773Z,2616
2017-11-20T12:08:48.660Z,2780
2017-11-20T12:10:02.812Z,2724
2017-11-20T12:11:04.694Z,2396
2017-11-20T12:12:06.571Z,2400
2017-11-20T12:13:08.448Z,2428
2017-11-20T12:14:10.267Z,2332
2017-11-20T12:15:12.087Z,2488
2017-11-20T12:16:13.970Z,2784
2017-11-20T12:17:15.851Z,2880
2017-11-20T12:18:17.731Z,3196
2017-11-20T12:19:31.884Z,3064
2017-11-20T12:20:33.768Z,2988
2017-11-20T12:21:35.647Z,2740
2017-11-20T12:22:37.527Z,2528
2017-11-20T12:23:39.344Z,2736
2017-11-20T12:24:41.169Z,2888
2017-11-20T12:25:43.049Z,2900
2017-11-20T12:26:44.941Z,2928
2017-11-20T12:27:46.826Z,3180
2017-11-20T12:29:01.027Z,3256
2017-11-20T12:30:02.915Z,3272
2017-11-20T12:31:04.801Z,3252
2017-11-20T12:32:06.681Z,3308
2017-11-20T12:33:08.501Z,3488
2017-11-20T12:34:10.321Z,3820
2017-11-20T12:35:12.200Z,4416
2017-11-20T12:36:14.085Z,5024
2017-11-20T12:37:15.964Z,5252
2017-11-20T12:38:30.121Z,5160
2017-11-20T12:39:32.005Z,5224
2017-11-20T12:40:33.880Z,5376
2017-11-20T12:41:35.764Z,5528
2017-11-20T12:42:37.579Z,5596
2017-11-20T12:43:39.399Z,5432
2017-11-20T12:44:41.282Z,5120
2017-11-20T12:45:43.159Z,4864
2017-11-20T12:46:45.037Z,4696
2017-11-20T12:47:59.194Z,4412
2017-11-20T12:49:01.075Z,3948
2017-11-20T12:50:02.955Z,3544
2017-11-20T12:51:04.833Z,3340
2017-11-20T12:52:06.652Z,3252
2017-11-20T12:53:08.472Z,3048
2017-11-20T12:54:10.355Z,2648
2017-11-20T12:55:12.236Z,2276
2017-11-20T12:56:14.113Z,1928
2017-11-20T12:57:28.267Z,1844
2017-11-20T12:58:30.149Z,1680
2017-11-20T12:59:32.029Z,1512
2017-11-20T13:00:33.907Z,1532
2017-11-20T13:01:35.724Z,1772
2017-11-20T13:02:37.542Z,2104
2017-11-20T13:03:39.431Z,2096
2017-11-20T13:04:41.303Z,1800
2017-11-20T13:05:43.177Z,1672
2017-11-20T13:06:57.330Z,1668
2017-11-20T13:07:59.209Z,1672
2017-11-20T13:09:01.090Z,1808
2017-11-20T13:10:02.966Z,2008
2017-11-20T13:11:04.785Z,2376
2017-11-20T13:12:06.601Z,2908
2017-11-20T13:13:08.481Z,2900
2017-11-20T13:14:10.360Z,2556
2017-11-20T13:15:12.238Z,1852
2017-11-20T13:16:26.391Z,1356
2017-11-20T13:17:28.272Z,1324
2017-11-20T13:18:30.150Z,1328
2017-11-20T13:19:32.025Z,1400
2017-11-20T13:20:33.845Z,1400
2017-11-20T13:21:35.661Z,1212
2017-11-20T13:22:37.543Z,1036
2017-11-20T13:23:39.420Z,976
2017-11-20T13:24:41.304Z,820
2017-11-20T13:25:55.478Z,748
2017-11-20T13:26:57.334Z,804
2017-11-20T13:27:59.209Z,804
2017-11-20T13:29:01.084Z,828
2017-11-20T13:30:02.903Z,956
2017-11-20T13:31:04.724Z,1124
2017-11-20T13:32:06.601Z,1204
2017-11-20T13:33:08.482Z,1208
2017-11-20T13:34:10.359Z,1220
2017-11-20T13:35:24.513Z,1148
2017-11-20T13:36:26.418Z,1132
2017-11-20T13:37:28.279Z,1184
2017-11-20T13:38:30.159Z,1156
2017-11-20T13:39:32.000Z,1116
2017-11-20T13:40:33.800Z,1056
2017-11-20T13:41:35.677Z,932
2017-11-20T13:42:37.564Z,812
2017-11-20T13:43:39.438Z,692
2017-11-20T13:44:53.623Z,604
2017-11-20T13:45:55.500Z,608
2017-11-20T13:46:57.380Z,648
2017-11-20T13:47:59.256Z,676
2017-11-20T13:49:01.079Z,676
2017-11-20T13:50:02.997Z,692
2017-11-20T13:51:04.955Z,704
2017-11-20T13:52:06.830Z,748
2017-11-20T13:53:08.720Z,780
2017-11-20T13:54:22.871Z,744
2017-11-20T13:55:24.748Z,720
2017-11-20T13:56:26.628Z,656
2017-11-20T13:57:28.503Z,604
2017-11-20T13:58:30.322Z,628
2017-11-20T13:59:32.139Z,680
2017-11-20T14:00:34.017Z,672
2017-11-20T14:01:35.896Z,700
2017-11-20T14:02:37.774Z,764
2017-11-20T14:03:51.926Z,840
2017-11-20T14:04:53.801Z,888
2017-11-20T14:05:55.682Z,900
2017-11-20T14:06:57.555Z,924
2017-11-20T14:07:59.375Z,956
2017-11-20T14:09:01.193Z,988
2017-11-20T14:10:03.074Z,964
2017-11-20T14:11:04.952Z,924
2017-11-20T14:12:06.829Z,860
2017-11-20T14:13:20.982Z,788
2017-11-20T14:14:22.865Z,824
2017-11-20T14:15:24.743Z,884
2017-11-20T14:16:26.622Z,988
2017-11-20T14:17:28.440Z,1076
2017-11-20T14:18:30.258Z,1060
2017-11-20T14:19:32.139Z,972
2017-11-20T14:20:34.018Z,928
2017-11-20T14:21:35.899Z,864
2017-11-20T14:22:50.057Z,724
2017-11-20T14:23:51.948Z,652
2017-11-20T14:24:53.826Z,596
2017-11-20T14:25:55.705Z,556
2017-11-20T14:26:57.521Z,528
2017-11-20T14:27:59.340Z,500
2017-11-20T14:29:01.220Z,448
2017-11-20T14:30:03.101Z,416
2017-11-20T14:31:04.978Z,408
2017-11-20T14:32:19.112Z,488
2017-11-20T14:33:20.930Z,576
2017-11-20T14:34:22.745Z,552
2017-11-20T14:35:24.622Z,532
2017-11-20T14:36:26.499Z,500
2017-11-20T14:37:28.861Z,556
2017-11-20T14:38:30.694Z,540
2017-11-20T14:39:32.522Z,568
2017-11-20T14:40:34.414Z,488
2017-11-20T14:41:48.626Z,528
2017-11-20T14:42:50.505Z,520
2017-11-20T14:43:52.385Z,428